sensor_id;sensor_type;location;lat;lon;timestamp;temperature;humidity
29547;DHT22;40782;47.264;11.330;2022-08-19T00:00:18;17.80;99.90
29547;DHT22;40782;47.264;11.330;2022-08-19T00:02:47;17.80;99.90
29547;DHT22;40782;47.264;11.330;2022-08-19T00:05:15;17.80;99.90
29547;DHT22;40782;47.264;11.330;2022-08-19T00:07:42;17.80;99.90
29547;DHT22;40782;47.264;11.330;2022-08-19T00:10:11;17.80;99.90
29547;DHT22;40782;47.264;11.330;2022-08-19T00:12:40;17.80;1.00
29547;DHT22;40782;47.264;11.330;2022-08-19T00:15:09;17.80;1.00
29547;DHT22;40782;47.264;11.330;2022-08-19T00:17:38;17.80;1.00
29547;DHT22;40782;47.264;11.330;2022-08-19T00:20:07;17.80;99.90
29547;DHT22;40782;47.264;11.330;2022-08-19T00:22:36;17.70;99.90
29547;DHT22;40782;47.264;11.330;2022-08-19T00:25:04;17.70;1.00
29547;DHT22;40782;47.264;11.330;2022-08-19T00:27:31;17.60;99.90
29547;DHT22;40782;47.264;11.330;2022-08-19T00:30:00;17.60;1.00
29547;DHT22;40782;47.264;11.330;2022-08-19T00:32:29;17.60;1.00
29547;DHT22;40782;47.264;11.330;2022-08-19T00:34:57;17.60;1.00
29547;DHT22;40782;47.264;11.330;2022-08-19T00:37:24;17.60;1.00
29547;DHT22;40782;47.264;11.330;2022-08-19T00:39:52;17.70;1.00
29547;DHT22;40782;47.264;11.330;2022-08-19T00:42:22;17.70;1.00
29547;DHT22;40782;47.264;11.330;2022-08-19T00:44:49;17.70;1.00
29547;DHT22;40782;47.264;11.330;2022-08-19T00:47:18;17.70;1.00
29547;DHT22;40782;47.264;11.330;2022-08-19T00:49:48;17.70;1.00
29547;DHT22;40782;47.264;11.330;2022-08-19T00:52:20;17.70;1.00
29547;DHT22;40782;47.264;11.330;2022-08-19T00:54:50;17.70;1.00
29547;DHT22;40782;47.264;11.330;2022-08-19T00:57:22;17.60;99.90
29547;DHT22;40782;47.264;11.330;2022-08-19T00:59:52;17.60;99.90
29547;DHT22;40782;47.264;11.330;2022-08-19T01:02:22;17.60;99.90
29547;DHT22;40782;47.264;11.330;2022-08-19T01:04:50;17.60;99.90
29547;DHT22;40782;47.264;11.330;2022-08-19T01:07:17;17.60;99.90
29547;DHT22;40782;47.264;11.330;2022-08-19T01:09:45;17.70;99.90
29547;DHT22;40782;47.264;11.330;2022-08-19T01:12:13;17.70;1.00
29547;DHT22;40782;47.264;11.330;2022-08-19T01:14:40;17.70;1.00
29547;DHT22;40782;47.264;11.330;2022-08-19T01:17:09;17.70;1.00
29547;DHT22;40782;47.264;11.330;2022-08-19T01:19:40;17.70;1.00
29547;DHT22;40782;47.264;11.330;2022-08-19T01:22:12;17.70;1.00
29547;DHT22;40782;47.264;11.330;2022-08-19T01:24:42;17.70;1.00
29547;DHT22;40782;47.264;11.330;2022-08-19T01:27:10;17.70;1.00
29547;DHT22;40782;47.264;11.330;2022-08-19T01:29:40;17.70;1.00
29547;DHT22;40782;47.264;11.330;2022-08-19T01:32:09;17.70;1.00
29547;DHT22;40782;47.264;11.330;2022-08-19T01:34:38;17.70;1.00
29547;DHT22;40782;47.264;11.330;2022-08-19T01:37:07;17.70;1.00
29547;DHT22;40782;47.264;11.330;2022-08-19T01:39:38;17.70;1.00
29547;DHT22;40782;47.264;11.330;2022-08-19T01:42:08;17.70;1.00
29547;DHT22;40782;47.264;11.330;2022-08-19T01:44:38;17.70;1.00
29547;DHT22;40782;47.264;11.330;2022-08-19T01:47:07;17.70;1.00
29547;DHT22;40782;47.264;11.330;2022-08-19T01:49:36;17.70;1.00
29547;DHT22;40782;47.264;11.330;2022-08-19T01:52:05;17.70;1.00
29547;DHT22;40782;47.264;11.330;2022-08-19T01:54:33;17.70;1.00
29547;DHT22;40782;47.264;11.330;2022-08-19T01:57:02;17.70;1.00
29547;DHT22;40782;47.264;11.330;2022-08-19T01:59:32;17.70;1.00
29547;DHT22;40782;47.264;11.330;2022-08-19T02:02:03;17.70;1.00
29547;DHT22;40782;47.264;11.330;2022-08-19T02:04:32;17.70;1.00
29547;DHT22;40782;47.264;11.330;2022-08-19T02:06:59;17.70;1.00
29547;DHT22;40782;47.264;11.330;2022-08-19T02:09:27;17.70;1.00
29547;DHT22;40782;47.264;11.330;2022-08-19T02:11:54;17.70;1.00
29547;DHT22;40782;47.264;11.330;2022-08-19T02:14:21;17.70;1.00
29547;DHT22;40782;47.264;11.330;2022-08-19T02:16:50;17.70;1.00
29547;DHT22;40782;47.264;11.330;2022-08-19T02:19:17;17.70;1.00
29547;DHT22;40782;47.264;11.330;2022-08-19T02:21:45;17.70;1.00
29547;DHT22;40782;47.264;11.330;2022-08-19T02:24:12;17.70;1.00
29547;DHT22;40782;47.264;11.330;2022-08-19T02:26:39;17.70;1.00
29547;DHT22;40782;47.264;11.330;2022-08-19T02:29:07;17.70;1.00
29547;DHT22;40782;47.264;11.330;2022-08-19T02:31:34;17.70;1.00
29547;DHT22;40782;47.264;11.330;2022-08-19T02:34:03;17.60;1.00
29547;DHT22;40782;47.264;11.330;2022-08-19T02:36:30;17.60;1.00
29547;DHT22;40782;47.264;11.330;2022-08-19T02:38:57;17.60;99.90
29547;DHT22;40782;47.264;11.330;2022-08-19T02:41:25;17.60;99.90
29547;DHT22;40782;47.264;11.330;2022-08-19T02:43:53;17.60;99.90
29547;DHT22;40782;47.264;11.330;2022-08-19T02:46:23;17.60;99.90
29547;DHT22;40782;47.264;11.330;2022-08-19T02:48:54;17.60;99.90
29547;DHT22;40782;47.264;11.330;2022-08-19T02:51:25;17.60;1.00
29547;DHT22;40782;47.264;11.330;2022-08-19T02:53:53;17.60;1.00
29547;DHT22;40782;47.264;11.330;2022-08-19T02:56:21;17.60;1.00
29547;DHT22;40782;47.264;11.330;2022-08-19T02:58:48;17.60;1.00
29547;DHT22;40782;47.264;11.330;2022-08-19T03:01:20;17.60;1.00
29547;DHT22;40782;47.264;11.330;2022-08-19T03:03:47;17.60;1.00
29547;DHT22;40782;47.264;11.330;2022-08-19T03:06:16;17.60;1.00
29547;DHT22;40782;47.264;11.330;2022-08-19T03:08:46;17.50;73.10
29547;DHT22;40782;47.264;11.330;2022-08-19T03:11:15;17.50;55.40
29547;DHT22;40782;47.264;11.330;2022-08-19T03:13:43;17.50;99.90
29547;DHT22;40782;47.264;11.330;2022-08-19T03:16:10;17.50;99.90
29547;DHT22;40782;47.264;11.330;2022-08-19T03:18:38;17.50;99.90
29547;DHT22;40782;47.264;11.330;2022-08-19T03:21:06;17.50;99.90
29547;DHT22;40782;47.264;11.330;2022-08-19T03:23:33;17.50;99.90
29547;DHT22;40782;47.264;11.330;2022-08-19T03:26:05;17.50;91.60
29547;DHT22;40782;47.264;11.330;2022-08-19T03:28:32;17.40;99.90
29547;DHT22;40782;47.264;11.330;2022-08-19T03:31:02;17.40;99.90
29547;DHT22;40782;47.264;11.330;2022-08-19T03:33:31;17.40;99.90
29547;DHT22;40782;47.264;11.330;2022-08-19T03:36:07;17.40;1.00
29547;DHT22;40782;47.264;11.330;2022-08-19T03:38:36;17.40;1.00
29547;DHT22;40782;47.264;11.330;2022-08-19T03:41:08;17.40;1.00
29547;DHT22;40782;47.264;11.330;2022-08-19T03:43:36;17.40;1.00
29547;DHT22;40782;47.264;11.330;2022-08-19T03:46:06;17.40;1.00
29547;DHT22;40782;47.264;11.330;2022-08-19T03:48:35;17.40;1.00
29547;DHT22;40782;47.264;11.330;2022-08-19T03:51:03;17.40;1.00
29547;DHT22;40782;47.264;11.330;2022-08-19T03:53:31;17.40;99.90
29547;DHT22;40782;47.264;11.330;2022-08-19T03:55:59;17.40;1.00
29547;DHT22;40782;47.264;11.330;2022-08-19T03:58:28;17.40;99.90
29547;DHT22;40782;47.264;11.330;2022-08-19T04:00:57;17.50;99.90
29547;DHT22;40782;47.264;11.330;2022-08-19T04:03:25;17.40;99.90
29547;DHT22;40782;47.264;11.330;2022-08-19T04:05:52;17.40;99.90
29547;DHT22;40782;47.264;11.330;2022-08-19T04:08:20;17.40;1.00
29547;DHT22;40782;47.264;11.330;2022-08-19T04:10:48;17.40;1.00
29547;DHT22;40782;47.264;11.330;2022-08-19T04:13:16;17.40;1.00
29547;DHT22;40782;47.264;11.330;2022-08-19T04:15:45;17.40;1.00
29547;DHT22;40782;47.264;11.330;2022-08-19T04:18:13;17.40;1.00
29547;DHT22;40782;47.264;11.330;2022-08-19T04:20:42;17.50;1.00
29547;DHT22;40782;47.264;11.330;2022-08-19T04:23:09;17.40;98.80
29547;DHT22;40782;47.264;11.330;2022-08-19T04:25:39;17.40;1.00
29547;DHT22;40782;47.264;11.330;2022-08-19T04:28:08;17.40;1.00
29547;DHT22;40782;47.264;11.330;2022-08-19T04:30:40;17.40;57.90
29547;DHT22;40782;47.264;11.330;2022-08-19T04:33:10;17.40;99.90
29547;DHT22;40782;47.264;11.330;2022-08-19T04:35:40;17.30;99.90
29547;DHT22;40782;47.264;11.330;2022-08-19T04:38:08;17.30;99.90
29547;DHT22;40782;47.264;11.330;2022-08-19T04:40:41;17.30;99.90
29547;DHT22;40782;47.264;11.330;2022-08-19T04:43:26;17.30;99.90
29547;DHT22;40782;47.264;11.330;2022-08-19T04:45:54;17.30;1.00
29547;DHT22;40782;47.264;11.330;2022-08-19T04:48:22;17.30;1.00
29547;DHT22;40782;47.264;11.330;2022-08-19T04:50:53;17.30;99.90
29547;DHT22;40782;47.264;11.330;2022-08-19T04:53:23;17.30;1.00
29547;DHT22;40782;47.264;11.330;2022-08-19T04:55:51;17.30;1.00
29547;DHT22;40782;47.264;11.330;2022-08-19T04:58:18;17.30;1.00
29547;DHT22;40782;47.264;11.330;2022-08-19T05:00:45;17.30;99.90
29547;DHT22;40782;47.264;11.330;2022-08-19T05:03:12;17.40;99.90
29547;DHT22;40782;47.264;11.330;2022-08-19T05:05:43;17.40;99.90
29547;DHT22;40782;47.264;11.330;2022-08-19T05:08:16;17.40;1.00
29547;DHT22;40782;47.264;11.330;2022-08-19T05:10:46;17.40;1.00
29547;DHT22;40782;47.264;11.330;2022-08-19T05:13:14;17.30;1.00
29547;DHT22;40782;47.264;11.330;2022-08-19T05:15:42;17.30;1.00
29547;DHT22;40782;47.264;11.330;2022-08-19T05:18:10;17.30;99.90
29547;DHT22;40782;47.264;11.330;2022-08-19T05:20:56;17.40;99.90
29547;DHT22;40782;47.264;11.330;2022-08-19T05:23:40;17.40;99.90
29547;DHT22;40782;47.264;11.330;2022-08-19T05:26:07;17.40;99.90
29547;DHT22;40782;47.264;11.330;2022-08-19T05:28:36;17.40;1.00
29547;DHT22;40782;47.264;11.330;2022-08-19T05:31:04;17.50;73.00
29547;DHT22;40782;47.264;11.330;2022-08-19T05:33:31;17.60;99.90
29547;DHT22;40782;47.264;11.330;2022-08-19T05:36:01;17.60;1.00
29547;DHT22;40782;47.264;11.330;2022-08-19T05:38:28;17.70;1.00
29547;DHT22;40782;47.264;11.330;2022-08-19T05:40:55;17.70;1.00
29547;DHT22;40782;47.264;11.330;2022-08-19T05:43:22;17.80;1.00
29547;DHT22;40782;47.264;11.330;2022-08-19T05:45:50;17.80;1.00
29547;DHT22;40782;47.264;11.330;2022-08-19T05:48:17;17.80;1.00
29547;DHT22;40782;47.264;11.330;2022-08-19T05:50:46;17.90;25.20
29547;DHT22;40782;47.264;11.330;2022-08-19T05:53:17;17.90;3.90
29547;DHT22;40782;47.264;11.330;2022-08-19T05:55:44;17.90;1.00
29547;DHT22;40782;47.264;11.330;2022-08-19T05:58:11;18.00;1.00
29547;DHT22;40782;47.264;11.330;2022-08-19T06:00:39;18.00;1.00
29547;DHT22;40782;47.264;11.330;2022-08-19T06:03:06;18.00;67.70
29547;DHT22;40782;47.264;11.330;2022-08-19T06:05:33;18.00;99.90
29547;DHT22;40782;47.264;11.330;2022-08-19T06:08:01;18.10;1.00
29547;DHT22;40782;47.264;11.330;2022-08-19T06:10:29;18.10;1.00
29547;DHT22;40782;47.264;11.330;2022-08-19T06:12:57;18.10;1.00
29547;DHT22;40782;47.264;11.330;2022-08-19T06:15:24;18.10;1.00
29547;DHT22;40782;47.264;11.330;2022-08-19T06:17:52;18.10;99.90
29547;DHT22;40782;47.264;11.330;2022-08-19T06:20:19;18.10;99.90
29547;DHT22;40782;47.264;11.330;2022-08-19T06:22:48;18.10;99.90
29547;DHT22;40782;47.264;11.330;2022-08-19T06:25:17;18.10;1.00
29547;DHT22;40782;47.264;11.330;2022-08-19T06:27:46;18.20;1.00
29547;DHT22;40782;47.264;11.330;2022-08-19T06:30:13;18.20;1.00
29547;DHT22;40782;47.264;11.330;2022-08-19T06:32:40;18.20;99.90
29547;DHT22;40782;47.264;11.330;2022-08-19T06:35:08;18.20;99.90
29547;DHT22;40782;47.264;11.330;2022-08-19T06:37:36;18.20;56.50
29547;DHT22;40782;47.264;11.330;2022-08-19T06:40:04;18.20;99.90
29547;DHT22;40782;47.264;11.330;2022-08-19T06:42:34;18.20;99.90
29547;DHT22;40782;47.264;11.330;2022-08-19T06:45:06;18.30;99.90
29547;DHT22;40782;47.264;11.330;2022-08-19T06:47:34;18.30;99.90
29547;DHT22;40782;47.264;11.330;2022-08-19T06:50:02;18.30;1.00
29547;DHT22;40782;47.264;11.330;2022-08-19T06:52:30;18.30;1.00
29547;DHT22;40782;47.264;11.330;2022-08-19T06:54:57;18.30;1.00
29547;DHT22;40782;47.264;11.330;2022-08-19T06:57:25;18.40;1.00
29547;DHT22;40782;47.264;11.330;2022-08-19T06:59:53;18.40;1.00
29547;DHT22;40782;47.264;11.330;2022-08-19T07:02:23;18.40;1.00
29547;DHT22;40782;47.264;11.330;2022-08-19T07:04:52;18.40;1.00
29547;DHT22;40782;47.264;11.330;2022-08-19T07:07:20;18.40;1.00
29547;DHT22;40782;47.264;11.330;2022-08-19T07:09:50;18.40;1.00
29547;DHT22;40782;47.264;11.330;2022-08-19T07:12:18;18.40;1.00
29547;DHT22;40782;47.264;11.330;2022-08-19T07:14:46;18.40;1.00
29547;DHT22;40782;47.264;11.330;2022-08-19T07:17:14;18.40;1.00
29547;DHT22;40782;47.264;11.330;2022-08-19T07:19:43;18.30;97.90
29547;DHT22;40782;47.264;11.330;2022-08-19T07:22:10;18.30;99.90
29547;DHT22;40782;47.264;11.330;2022-08-19T07:24:37;18.30;1.00
29547;DHT22;40782;47.264;11.330;2022-08-19T07:27:06;18.20;99.90
29547;DHT22;40782;47.264;11.330;2022-08-19T07:29:36;18.20;1.00
29547;DHT22;40782;47.264;11.330;2022-08-19T07:32:04;18.20;1.00
29547;DHT22;40782;47.264;11.330;2022-08-19T07:34:32;18.10;99.90
29547;DHT22;40782;47.264;11.330;2022-08-19T07:37:04;18.10;99.90
29547;DHT22;40782;47.264;11.330;2022-08-19T07:39:34;18.10;1.00
29547;DHT22;40782;47.264;11.330;2022-08-19T07:42:06;18.00;56.70
29547;DHT22;40782;47.264;11.330;2022-08-19T07:44:33;18.00;99.90
29547;DHT22;40782;47.264;11.330;2022-08-19T07:47:01;18.10;99.90
29547;DHT22;40782;47.264;11.330;2022-08-19T07:49:28;18.20;99.90
29547;DHT22;40782;47.264;11.330;2022-08-19T07:51:58;18.30;1.00
29547;DHT22;40782;47.264;11.330;2022-08-19T07:54:30;18.40;99.90
29547;DHT22;40782;47.264;11.330;2022-08-19T07:56:59;18.50;99.90
29547;DHT22;40782;47.264;11.330;2022-08-19T07:59:27;18.70;99.90
29547;DHT22;40782;47.264;11.330;2022-08-19T08:01:54;18.80;63.90
29547;DHT22;40782;47.264;11.330;2022-08-19T08:04:22;18.90;1.00
29547;DHT22;40782;47.264;11.330;2022-08-19T08:07:07;19.10;1.00
29547;DHT22;40782;47.264;11.330;2022-08-19T08:09:53;19.20;99.90
29547;DHT22;40782;47.264;11.330;2022-08-19T08:12:27;19.30;1.00
29547;DHT22;40782;47.264;11.330;2022-08-19T08:14:58;19.40;99.90
29547;DHT22;40782;47.264;11.330;2022-08-19T08:17:28;19.50;99.90
29547;DHT22;40782;47.264;11.330;2022-08-19T08:19:56;19.50;99.90
29547;DHT22;40782;47.264;11.330;2022-08-19T08:22:24;19.60;99.90
29547;DHT22;40782;47.264;11.330;2022-08-19T08:25:17;19.60;99.90
29547;DHT22;40782;47.264;11.330;2022-08-19T08:27:45;19.60;99.90
29547;DHT22;40782;47.264;11.330;2022-08-19T08:30:16;19.60;99.90
29547;DHT22;40782;47.264;11.330;2022-08-19T08:32:43;19.70;99.90
29547;DHT22;40782;47.264;11.330;2022-08-19T08:35:13;19.90;99.90
29547;DHT22;40782;47.264;11.330;2022-08-19T08:37:40;20.00;99.90
29547;DHT22;40782;47.264;11.330;2022-08-19T08:40:18;20.10;1.00
29547;DHT22;40782;47.264;11.330;2022-08-19T08:42:50;20.30;1.00
29547;DHT22;40782;47.264;11.330;2022-08-19T08:45:20;20.40;1.00
29547;DHT22;40782;47.264;11.330;2022-08-19T08:47:50;20.50;1.00
29547;DHT22;40782;47.264;11.330;2022-08-19T08:50:20;20.50;1.00
29547;DHT22;40782;47.264;11.330;2022-08-19T08:52:51;20.60;1.00
29547;DHT22;40782;47.264;11.330;2022-08-19T08:55:24;20.60;1.00
29547;DHT22;40782;47.264;11.330;2022-08-19T08:57:57;20.70;1.00
29547;DHT22;40782;47.264;11.330;2022-08-19T09:00:27;20.80;1.00
29547;DHT22;40782;47.264;11.330;2022-08-19T09:02:57;20.80;1.00
29547;DHT22;40782;47.264;11.330;2022-08-19T09:05:29;20.90;1.00
29547;DHT22;40782;47.264;11.330;2022-08-19T09:08:00;21.00;1.00
29547;DHT22;40782;47.264;11.330;2022-08-19T09:10:36;21.00;1.00
29547;DHT22;40782;47.264;11.330;2022-08-19T09:13:10;21.20;1.00
29547;DHT22;40782;47.264;11.330;2022-08-19T09:15:46;21.30;1.00
29547;DHT22;40782;47.264;11.330;2022-08-19T09:18:15;21.40;1.00
29547;DHT22;40782;47.264;11.330;2022-08-19T09:20:43;21.50;1.00
29547;DHT22;40782;47.264;11.330;2022-08-19T09:23:10;21.70;1.00
29547;DHT22;40782;47.264;11.330;2022-08-19T09:25:39;21.80;1.00
29547;DHT22;40782;47.264;11.330;2022-08-19T09:28:06;21.80;1.00
29547;DHT22;40782;47.264;11.330;2022-08-19T09:30:36;21.90;1.00
29547;DHT22;40782;47.264;11.330;2022-08-19T09:33:06;21.80;1.00
29547;DHT22;40782;47.264;11.330;2022-08-19T09:35:33;21.70;1.00
29547;DHT22;40782;47.264;11.330;2022-08-19T09:38:01;21.70;1.00
29547;DHT22;40782;47.264;11.330;2022-08-19T09:40:29;21.80;1.00
29547;DHT22;40782;47.264;11.330;2022-08-19T09:42:58;21.80;1.00
29547;DHT22;40782;47.264;11.330;2022-08-19T09:45:28;21.90;1.00
29547;DHT22;40782;47.264;11.330;2022-08-19T09:47:56;22.00;1.00
29547;DHT22;40782;47.264;11.330;2022-08-19T09:50:23;22.20;1.00
29547;DHT22;40782;47.264;11.330;2022-08-19T09:52:51;22.40;1.00
29547;DHT22;40782;47.264;11.330;2022-08-19T09:55:22;22.60;1.00
29547;DHT22;40782;47.264;11.330;2022-08-19T09:57:49;22.60;99.90
29547;DHT22;40782;47.264;11.330;2022-08-19T10:00:18;22.70;99.90
29547;DHT22;40782;47.264;11.330;2022-08-19T10:02:46;22.70;99.90
29547;DHT22;40782;47.264;11.330;2022-08-19T10:05:13;22.70;99.90
29547;DHT22;40782;47.264;11.330;2022-08-19T10:07:58;22.70;99.90
29547;DHT22;40782;47.264;11.330;2022-08-19T10:10:26;22.80;99.90
29547;DHT22;40782;47.264;11.330;2022-08-19T10:12:53;22.90;99.90
29547;DHT22;40782;47.264;11.330;2022-08-19T10:15:23;23.00;99.90
29547;DHT22;40782;47.264;11.330;2022-08-19T10:17:50;23.10;99.90
29547;DHT22;40782;47.264;11.330;2022-08-19T10:20:17;23.30;99.90
29547;DHT22;40782;47.264;11.330;2022-08-19T10:22:44;23.30;99.90
29547;DHT22;40782;47.264;11.330;2022-08-19T10:25:12;23.30;99.90
29547;DHT22;40782;47.264;11.330;2022-08-19T10:27:39;23.30;99.90
29547;DHT22;40782;47.264;11.330;2022-08-19T10:30:08;23.40;99.90
29547;DHT22;40782;47.264;11.330;2022-08-19T10:32:37;23.60;99.90
29547;DHT22;40782;47.264;11.330;2022-08-19T10:35:05;23.80;99.90
29547;DHT22;40782;47.264;11.330;2022-08-19T10:37:34;23.90;99.90
29547;DHT22;40782;47.264;11.330;2022-08-19T10:40:04;23.90;99.90
29547;DHT22;40782;47.264;11.330;2022-08-19T10:42:32;24.00;99.90
29547;DHT22;40782;47.264;11.330;2022-08-19T10:45:00;24.00;99.90
29547;DHT22;40782;47.264;11.330;2022-08-19T10:47:27;24.10;99.90
29547;DHT22;40782;47.264;11.330;2022-08-19T10:49:55;24.20;99.90
29547;DHT22;40782;47.264;11.330;2022-08-19T10:52:41;24.50;99.90
29547;DHT22;40782;47.264;11.330;2022-08-19T10:55:08;24.90;99.90
29547;DHT22;40782;47.264;11.330;2022-08-19T10:57:53;25.20;99.90
29547;DHT22;40782;47.264;11.330;2022-08-19T11:00:21;25.20;99.90
29547;DHT22;40782;47.264;11.330;2022-08-19T11:02:49;25.00;99.90
29547;DHT22;40782;47.264;11.330;2022-08-19T11:05:17;25.00;99.90
29547;DHT22;40782;47.264;11.330;2022-08-19T11:07:46;24.90;99.90
29547;DHT22;40782;47.264;11.330;2022-08-19T11:10:17;24.60;99.90
29547;DHT22;40782;47.264;11.330;2022-08-19T11:12:45;24.30;99.90
29547;DHT22;40782;47.264;11.330;2022-08-19T11:15:13;24.10;99.90
29547;DHT22;40782;47.264;11.330;2022-08-19T11:17:41;24.20;99.90
29547;DHT22;40782;47.264;11.330;2022-08-19T11:20:10;24.40;99.90
29547;DHT22;40782;47.264;11.330;2022-08-19T11:22:39;24.70;99.90
29547;DHT22;40782;47.264;11.330;2022-08-19T11:25:09;24.80;99.90
29547;DHT22;40782;47.264;11.330;2022-08-19T11:27:38;24.80;99.90
29547;DHT22;40782;47.264;11.330;2022-08-19T11:30:09;24.90;99.90
29547;DHT22;40782;47.264;11.330;2022-08-19T11:32:37;25.00;99.90
29547;DHT22;40782;47.264;11.330;2022-08-19T11:35:05;25.20;99.90
29547;DHT22;40782;47.264;11.330;2022-08-19T11:37:32;25.40;99.90
29547;DHT22;40782;47.264;11.330;2022-08-19T11:40:07;25.70;99.90
29547;DHT22;40782;47.264;11.330;2022-08-19T11:42:34;26.00;99.90
29547;DHT22;40782;47.264;11.330;2022-08-19T11:45:19;26.50;99.90
29547;DHT22;40782;47.264;11.330;2022-08-19T11:47:46;26.70;99.90
29547;DHT22;40782;47.264;11.330;2022-08-19T11:50:14;26.70;99.90
29547;DHT22;40782;47.264;11.330;2022-08-19T11:52:41;26.80;99.90
29547;DHT22;40782;47.264;11.330;2022-08-19T11:55:11;26.80;99.90
29547;DHT22;40782;47.264;11.330;2022-08-19T11:57:38;27.00;99.90
29547;DHT22;40782;47.264;11.330;2022-08-19T12:00:07;27.20;99.90
29547;DHT22;40782;47.264;11.330;2022-08-19T12:02:36;27.50;99.90
29547;DHT22;40782;47.264;11.330;2022-08-19T12:05:04;27.50;99.90
29547;DHT22;40782;47.264;11.330;2022-08-19T12:07:32;27.20;99.90
29547;DHT22;40782;47.264;11.330;2022-08-19T12:10:00;27.20;99.90
29547;DHT22;40782;47.264;11.330;2022-08-19T12:12:28;27.30;99.90
29547;DHT22;40782;47.264;11.330;2022-08-19T12:14:55;27.20;99.90
29547;DHT22;40782;47.264;11.330;2022-08-19T12:17:24;27.10;99.90
29547;DHT22;40782;47.264;11.330;2022-08-19T12:19:52;27.20;99.90
29547;DHT22;40782;47.264;11.330;2022-08-19T12:22:19;27.30;99.90
29547;DHT22;40782;47.264;11.330;2022-08-19T12:24:47;27.30;99.90
29547;DHT22;40782;47.264;11.330;2022-08-19T12:27:16;27.20;99.90
29547;DHT22;40782;47.264;11.330;2022-08-19T12:29:44;27.10;99.90
29547;DHT22;40782;47.264;11.330;2022-08-19T12:32:12;27.00;99.90
29547;DHT22;40782;47.264;11.330;2022-08-19T12:34:39;27.00;99.90
29547;DHT22;40782;47.264;11.330;2022-08-19T12:37:08;27.10;99.90
29547;DHT22;40782;47.264;11.330;2022-08-19T12:39:39;26.90;99.90
29547;DHT22;40782;47.264;11.330;2022-08-19T12:42:08;27.00;99.90
29547;DHT22;40782;47.264;11.330;2022-08-19T12:44:35;27.00;99.90
29547;DHT22;40782;47.264;11.330;2022-08-19T12:47:04;27.30;99.90
29547;DHT22;40782;47.264;11.330;2022-08-19T12:49:32;27.60;99.90
29547;DHT22;40782;47.264;11.330;2022-08-19T12:52:03;27.80;99.90
29547;DHT22;40782;47.264;11.330;2022-08-19T12:54:31;27.80;99.90
29547;DHT22;40782;47.264;11.330;2022-08-19T12:56:59;27.60;99.90
29547;DHT22;40782;47.264;11.330;2022-08-19T12:59:26;27.50;99.90
29547;DHT22;40782;47.264;11.330;2022-08-19T13:01:54;27.40;99.90
29547;DHT22;40782;47.264;11.330;2022-08-19T13:04:22;27.40;99.90
29547;DHT22;40782;47.264;11.330;2022-08-19T13:06:51;27.40;99.90
29547;DHT22;40782;47.264;11.330;2022-08-19T13:09:18;27.40;99.90
29547;DHT22;40782;47.264;11.330;2022-08-19T13:11:45;27.30;99.90
29547;DHT22;40782;47.264;11.330;2022-08-19T13:14:12;27.30;99.90
29547;DHT22;40782;47.264;11.330;2022-08-19T13:16:39;27.40;99.90
29547;DHT22;40782;47.264;11.330;2022-08-19T13:19:06;27.40;99.90
29547;DHT22;40782;47.264;11.330;2022-08-19T13:21:35;27.40;99.90
29547;DHT22;40782;47.264;11.330;2022-08-19T13:24:03;27.50;99.90
29547;DHT22;40782;47.264;11.330;2022-08-19T13:26:30;27.50;99.90
29547;DHT22;40782;47.264;11.330;2022-08-19T13:28:57;27.40;99.90
29547;DHT22;40782;47.264;11.330;2022-08-19T13:31:42;27.20;99.90
29547;DHT22;40782;47.264;11.330;2022-08-19T13:34:29;27.30;99.90
29547;DHT22;40782;47.264;11.330;2022-08-19T13:36:58;27.20;99.90
29547;DHT22;40782;47.264;11.330;2022-08-19T13:39:25;27.20;99.90
29547;DHT22;40782;47.264;11.330;2022-08-19T13:41:54;27.10;99.90
29547;DHT22;40782;47.264;11.330;2022-08-19T13:44:21;27.00;99.90
29547;DHT22;40782;47.264;11.330;2022-08-19T13:46:49;26.90;99.90
29547;DHT22;40782;47.264;11.330;2022-08-19T13:49:17;26.70;99.90
29547;DHT22;40782;47.264;11.330;2022-08-19T13:51:46;26.40;99.90
29547;DHT22;40782;47.264;11.330;2022-08-19T13:54:14;26.30;99.90
29547;DHT22;40782;47.264;11.330;2022-08-19T13:56:43;26.20;99.90
29547;DHT22;40782;47.264;11.330;2022-08-19T13:59:10;26.10;99.90
29547;DHT22;40782;47.264;11.330;2022-08-19T14:01:38;26.00;99.90
29547;DHT22;40782;47.264;11.330;2022-08-19T14:04:06;25.90;99.90
29547;DHT22;40782;47.264;11.330;2022-08-19T14:06:33;25.80;99.90
29547;DHT22;40782;47.264;11.330;2022-08-19T14:09:01;25.70;99.90
29547;DHT22;40782;47.264;11.330;2022-08-19T14:11:31;25.50;99.90
29547;DHT22;40782;47.264;11.330;2022-08-19T14:13:58;25.20;99.90
29547;DHT22;40782;47.264;11.330;2022-08-19T14:16:25;24.80;99.90
29547;DHT22;40782;47.264;11.330;2022-08-19T14:18:53;24.60;99.90
29547;DHT22;40782;47.264;11.330;2022-08-19T14:21:21;24.30;99.90
29547;DHT22;40782;47.264;11.330;2022-08-19T14:23:50;24.10;99.90
29547;DHT22;40782;47.264;11.330;2022-08-19T14:26:20;23.80;99.90
29547;DHT22;40782;47.264;11.330;2022-08-19T14:28:49;23.50;99.90
29547;DHT22;40782;47.264;11.330;2022-08-19T14:31:18;23.30;99.90
29547;DHT22;40782;47.264;11.330;2022-08-19T14:33:47;23.00;99.90
29547;DHT22;40782;47.264;11.330;2022-08-19T14:36:15;22.70;99.90
29547;DHT22;40782;47.264;11.330;2022-08-19T14:38:42;22.40;99.90
29547;DHT22;40782;47.264;11.330;2022-08-19T14:41:12;22.20;99.90
29547;DHT22;40782;47.264;11.330;2022-08-19T14:43:39;22.00;99.90
29547;DHT22;40782;47.264;11.330;2022-08-19T14:46:08;21.80;99.90
29547;DHT22;40782;47.264;11.330;2022-08-19T14:48:36;21.80;1.00
29547;DHT22;40782;47.264;11.330;2022-08-19T14:51:04;21.80;1.00
29547;DHT22;40782;47.264;11.330;2022-08-19T14:53:33;22.00;1.00
29547;DHT22;40782;47.264;11.330;2022-08-19T14:56:00;22.10;1.00
29547;DHT22;40782;47.264;11.330;2022-08-19T14:58:28;22.20;1.00
29547;DHT22;40782;47.264;11.330;2022-08-19T15:00:57;22.40;1.00
29547;DHT22;40782;47.264;11.330;2022-08-19T15:03:27;22.50;1.00
29547;DHT22;40782;47.264;11.330;2022-08-19T15:05:54;22.60;1.00
29547;DHT22;40782;47.264;11.330;2022-08-19T15:08:23;22.70;1.00
29547;DHT22;40782;47.264;11.330;2022-08-19T15:10:51;22.80;1.00
29547;DHT22;40782;47.264;11.330;2022-08-19T15:13:18;22.90;1.00
29547;DHT22;40782;47.264;11.330;2022-08-19T15:15:45;23.10;1.00
29547;DHT22;40782;47.264;11.330;2022-08-19T15:18:13;23.30;1.00
29547;DHT22;40782;47.264;11.330;2022-08-19T15:20:43;23.50;1.00
29547;DHT22;40782;47.264;11.330;2022-08-19T15:23:11;23.50;1.00
29547;DHT22;40782;47.264;11.330;2022-08-19T15:25:39;23.70;1.00
29547;DHT22;40782;47.264;11.330;2022-08-19T15:28:07;24.00;1.00
29547;DHT22;40782;47.264;11.330;2022-08-19T15:30:38;24.30;1.00
29547;DHT22;40782;47.264;11.330;2022-08-19T15:33:05;24.50;1.00